createdAt,value
2019-05-16T00:00:40.600Z,12.01
2019-05-16T00:05:53.278Z,12.09
2019-05-16T00:10:48.829Z,12.17
2019-05-16T00:15:52.080Z,12.22
2019-05-16T00:20:54.986Z,12.10
2019-05-16T00:25:58.680Z,12.18
2019-05-16T00:31:02.224Z,12.21
2019-05-16T00:36:06.908Z,12.02
2019-05-16T00:41:10.582Z,12.04
2019-05-16T00:46:13.837Z,12.20
2019-05-16T00:51:18.341Z,12.26
2019-05-16T00:56:21.855Z,12.14
2019-05-16T01:01:24.825Z,12.10
2019-05-16T01:06:28.692Z,12.10
2019-05-16T01:11:31.985Z,12.03
2019-05-16T01:16:35.103Z,11.95
2019-05-16T01:21:39.088Z,11.99
2019-05-16T01:26:43.063Z,12.01
2019-05-16T01:31:48.377Z,12.04
2019-05-16T01:36:51.905Z,11.94
2019-05-16T01:41:55.480Z,12.04
2019-05-16T01:46:58.624Z,12.03
2019-05-16T01:52:02.137Z,12.07
2019-05-16T01:57:08.006Z,12.12
2019-05-16T02:02:11.243Z,12.02
2019-05-16T02:07:14.154Z,12.03
2019-05-16T02:12:18.509Z,12.06
2019-05-16T02:17:23.266Z,12.06
2019-05-16T02:22:28.390Z,12.16
2019-05-16T02:27:31.207Z,12.19
2019-05-16T02:32:33.840Z,11.98
2019-05-16T02:37:41.764Z,12.15
2019-05-16T02:42:42.967Z,12.23
2019-05-16T02:47:46.188Z,12.20
2019-05-16T02:52:51.770Z,12.18
2019-05-16T02:57:53.727Z,12.26
2019-05-16T03:03:01.207Z,12.19
2019-05-16T03:08:04.774Z,12.25
2019-05-16T03:13:11.177Z,12.24
2019-05-16T03:18:17.073Z,12.21
2019-05-16T03:23:21.851Z,12.17
2019-05-16T03:28:24.924Z,12.23
2019-05-16T03:33:38.964Z,12.06
2019-05-16T03:38:32.828Z,12.02
2019-05-16T03:43:36.440Z,12.00
2019-05-16T03:48:40.905Z,11.88
2019-05-16T03:53:44.397Z,11.79
2019-05-16T03:58:50.775Z,11.83
2019-05-16T04:03:52.746Z,11.91
2019-05-16T04:08:55.649Z,12.04
2019-05-16T04:14:01.403Z,12.23
2019-05-16T04:19:04.268Z,12.29
2019-05-16T04:24:07.651Z,12.39
2019-05-16T04:29:11.854Z,12.26
2019-05-16T04:34:25.627Z,12.20
2019-05-16T04:39:31.879Z,12.22
2019-05-16T04:44:33.324Z,12.45
2019-05-16T04:49:36.964Z,12.66
2019-05-16T04:54:41.999Z,12.68
2019-05-16T04:59:44.967Z,12.62
2019-05-16T05:04:50.845Z,12.48
2019-05-16T05:09:53.173Z,12.58
2019-05-16T05:14:56.239Z,12.74
2019-05-16T05:20:01.024Z,12.75
2019-05-16T05:25:05.117Z,12.89
2019-05-16T05:30:10.462Z,12.66
2019-05-16T05:35:14.272Z,12.83
2019-05-16T05:40:19.913Z,12.89
2019-05-16T05:45:22.666Z,12.78
2019-05-16T05:50:27.541Z,12.68
2019-05-16T05:55:31.421Z,13.08
2019-05-16T06:00:34.761Z,13.11
2019-05-16T06:05:38.034Z,13.33
2019-05-16T06:10:41.120Z,13.45
2019-05-16T06:15:43.757Z,13.63
2019-05-16T06:20:47.289Z,13.60
2019-05-16T06:25:51.047Z,13.34
2019-05-16T06:30:54.316Z,13.48
2019-05-16T06:35:57.127Z,13.64
2019-05-16T06:41:00.528Z,13.05
2019-05-16T06:46:03.889Z,12.86
2019-05-16T06:51:07.109Z,13.06
2019-05-16T06:56:10.452Z,13.03
2019-05-16T07:01:14.090Z,13.14
2019-05-16T07:06:36.050Z,12.89
2019-05-16T07:11:24.195Z,13.03
2019-05-16T07:16:29.832Z,12.87
2019-05-16T07:21:32.559Z,12.89
2019-05-16T07:26:36.031Z,12.72
2019-05-16T07:31:40.587Z,12.57
2019-05-16T07:36:43.487Z,12.89
2019-05-16T07:41:46.722Z,12.85
2019-05-16T07:46:51.574Z,12.92
2019-05-16T07:51:54.796Z,12.89
2019-05-16T07:57:09.594Z,13.15
2019-05-16T08:02:02.747Z,13.25
2019-05-16T08:07:06.001Z,13.43
2019-05-16T08:12:10.531Z,13.94
2019-05-16T08:17:14.407Z,13.80
2019-05-16T08:22:17.707Z,14.05
2019-05-16T08:27:20.976Z,13.86
2019-05-16T08:32:24.057Z,13.95
2019-05-16T08:37:42.777Z,13.98
2019-05-16T08:42:32.497Z,13.41
2019-05-16T08:47:35.516Z,13.16
2019-05-16T08:52:43.014Z,13.11
2019-05-16T08:57:43.490Z,13.18
2019-05-16T09:02:46.632Z,13.33
2019-05-16T09:07:49.799Z,13.26
2019-05-16T09:12:52.461Z,13.31
2019-05-16T09:17:57.942Z,13.26
2019-05-16T09:23:00.797Z,13.15
2019-05-16T09:28:04.120Z,12.69
2019-05-16T09:33:07.405Z,12.57
2019-05-16T09:38:10.140Z,12.54
2019-05-16T09:43:13.097Z,12.60
2019-05-16T09:48:19.006Z,12.66
2019-05-16T09:53:21.299Z,12.66
2019-05-16T09:58:24.212Z,12.68
2019-05-16T10:03:27.271Z,12.77
2019-05-16T10:08:30.463Z,12.89
2019-05-16T10:13:33.556Z,12.92
2019-05-16T10:18:37.078Z,12.82
2019-05-16T10:23:40.039Z,12.96
2019-05-16T10:28:46.655Z,13.05
2019-05-16T10:33:49.396Z,12.86
2019-05-16T10:38:52.583Z,12.71
2019-05-16T10:43:56.892Z,12.98
2019-05-16T10:49:00.490Z,13.02
2019-05-16T10:54:10.518Z,12.87
2019-05-16T10:59:50.256Z,12.90
2019-05-16T11:04:26.318Z,12.80
2019-05-16T11:09:18.193Z,12.60
2019-05-16T11:14:20.876Z,12.68
2019-05-16T11:19:25.600Z,12.66
2019-05-16T11:24:31.385Z,12.55
2019-05-16T11:29:36.653Z,12.49
2019-05-16T11:34:39.554Z,12.68
2019-05-16T11:39:42.880Z,12.64
2019-05-16T11:44:47.837Z,12.79
2019-05-16T11:49:51.358Z,13.10
2019-05-16T11:54:57.059Z,13.50
2019-05-16T11:59:59.397Z,13.80
2019-05-16T12:05:03.079Z,13.98
2019-05-16T12:10:07.640Z,14.71
2019-05-16T12:15:11.362Z,15.20
2019-05-16T12:20:16.667Z,16.36
2019-05-16T12:25:20.040Z,17.55
2019-05-16T12:30:23.469Z,18.09
2019-05-16T12:35:27.735Z,17.93
2019-05-16T12:40:31.351Z,17.58
2019-05-16T12:45:34.824Z,18.22
2019-05-16T12:50:38.901Z,18.24
2019-05-16T12:55:42.372Z,17.89
2019-05-16T13:00:54.013Z,17.62
2019-05-16T13:05:50.158Z,17.30
2019-05-16T13:10:53.106Z,16.97
2019-05-16T13:15:56.811Z,16.63
2019-05-16T13:21:00.410Z,16.54
2019-05-16T13:26:03.507Z,16.60
2019-05-16T13:31:07.720Z,16.89
2019-05-16T13:36:11.151Z,16.45
2019-05-16T13:41:14.304Z,16.51
2019-05-16T13:46:17.465Z,16.34
2019-05-16T13:51:20.672Z,16.30
2019-05-16T13:56:23.942Z,15.99
2019-05-16T14:01:27.880Z,15.88
2019-05-16T14:06:30.974Z,15.60
2019-05-16T14:11:36.369Z,15.46
2019-05-16T14:16:39.901Z,15.16
2019-05-16T14:21:42.806Z,15.08
2019-05-16T14:26:46.576Z,15.26
2019-05-16T14:31:49.834Z,15.36
2019-05-16T14:36:53.344Z,15.31
2019-05-16T14:41:56.931Z,15.39
2019-05-16T14:46:59.839Z,15.51
2019-05-16T14:52:03.393Z,15.62
2019-05-16T14:57:06.363Z,15.66
2019-05-16T15:02:09.939Z,15.74
2019-05-16T15:07:13.026Z,15.55
2019-05-16T15:12:17.265Z,15.48
2019-05-16T15:17:20.463Z,15.45
2019-05-16T15:22:23.418Z,15.56
2019-05-16T15:27:26.460Z,15.64
2019-05-16T15:32:31.778Z,15.46
2019-05-16T15:37:37.356Z,15.56
2019-05-16T15:42:39.489Z,15.62
2019-05-16T15:47:42.930Z,15.46
2019-05-16T15:52:46.461Z,15.42
2019-05-16T15:57:50.131Z,15.50
2019-05-16T16:02:53.339Z,15.41
2019-05-16T16:07:56.925Z,15.45
2019-05-16T16:13:00.488Z,15.34
2019-05-16T16:18:08.568Z,15.30
2019-05-16T16:23:09.605Z,15.14
2019-05-16T16:28:12.844Z,15.18
2019-05-16T16:33:25.430Z,15.17
2019-05-16T16:38:24.524Z,15.12
2019-05-16T16:43:27.846Z,14.92
2019-05-16T16:48:31.039Z,14.85
2019-05-16T16:53:34.262Z,14.81
2019-05-16T16:58:37.594Z,14.83
2019-05-16T17:03:40.796Z,14.77
2019-05-16T17:08:44.426Z,14.63
2019-05-16T17:13:48.053Z,14.46
2019-05-16T17:18:51.334Z,14.10
2019-05-16T17:23:56.882Z,14.05
2019-05-16T17:29:00.420Z,14.10
2019-05-16T17:34:03.764Z,14.08
2019-05-16T17:39:07.759Z,13.79
2019-05-16T17:44:11.010Z,13.70
2019-05-16T17:49:14.586Z,13.55
2019-05-16T17:54:18.134Z,13.61
2019-05-16T17:59:21.410Z,13.63
2019-05-16T18:04:26.676Z,13.59
2019-05-16T18:09:30.359Z,13.60
2019-05-16T18:14:37.256Z,13.72
2019-05-16T18:19:40.753Z,13.60
2019-05-16T18:24:47.298Z,13.59
2019-05-16T18:29:52.459Z,13.49
2019-05-16T18:34:58.226Z,13.43
2019-05-16T18:40:02.417Z,13.39
2019-05-16T18:45:08.004Z,13.39
2019-05-16T18:50:12.130Z,13.29
2019-05-16T18:55:17.033Z,13.33
2019-05-16T19:00:21.509Z,13.32
2019-05-16T19:05:26.476Z,13.23
2019-05-16T19:10:30.268Z,13.28
2019-05-16T19:15:34.285Z,13.21
2019-05-16T19:20:37.900Z,13.27
2019-05-16T19:25:41.282Z,13.22
2019-05-16T19:30:46.543Z,13.28
2019-05-16T19:35:49.857Z,13.23
2019-05-16T19:40:53.872Z,13.20
2019-05-16T19:45:57.942Z,13.20
2019-05-16T19:51:01.602Z,12.98
2019-05-16T19:56:04.227Z,13.15
2019-05-16T20:01:07.455Z,12.96
2019-05-16T20:06:10.991Z,13.01
2019-05-16T20:11:16.711Z,12.97
2019-05-16T20:16:19.711Z,12.82
2019-05-16T20:21:23.035Z,13.00
2019-05-16T20:26:28.017Z,12.90
2019-05-16T20:31:31.604Z,12.90
2019-05-16T20:36:36.986Z,12.82
2019-05-16T20:41:40.270Z,12.79
2019-05-16T20:46:43.472Z,12.72
2019-05-16T20:51:49.934Z,12.64
2019-05-16T20:56:51.327Z,12.57
2019-05-16T21:01:54.649Z,12.68
2019-05-16T21:07:05.749Z,12.77
2019-05-16T21:12:03.551Z,12.62
2019-05-16T21:17:07.248Z,12.80
2019-05-16T21:22:10.560Z,12.64
2019-05-16T21:27:13.948Z,12.45
2019-05-16T21:32:17.288Z,12.39
2019-05-16T21:37:20.660Z,12.36
2019-05-16T21:42:24.124Z,12.57
2019-05-16T21:47:29.548Z,12.37
2019-05-16T21:52:32.837Z,12.41
2019-05-16T21:57:37.694Z,12.49
2019-05-16T22:02:41.344Z,12.27
2019-05-16T22:07:47.176Z,12.27
2019-05-16T22:12:49.943Z,12.35
2019-05-16T22:17:53.541Z,12.26
2019-05-16T22:22:57.385Z,12.19
2019-05-16T22:28:00.883Z,12.21
2019-05-16T22:33:03.813Z,12.15
2019-05-16T22:38:07.078Z,12.13
2019-05-16T22:43:10.514Z,12.00
2019-05-16T22:48:14.207Z,12.05
2019-05-16T22:53:17.361Z,12.14
2019-05-16T22:58:20.191Z,11.98
2019-05-16T23:03:23.060Z,11.75
2019-05-16T23:08:27.170Z,11.50
2019-05-16T23:13:30.227Z,11.45
2019-05-16T23:18:32.830Z,11.41
2019-05-16T23:23:37.252Z,11.23
2019-05-16T23:28:40.629Z,11.13
2019-05-16T23:33:43.536Z,11.28
2019-05-16T23:38:47.392Z,11.41
2019-05-16T23:43:50.647Z,11.18
2019-05-16T23:48:53.546Z,11.21
2019-05-16T23:53:57.225Z,10.94
2019-05-16T23:59:00.389Z,11.09
